Time;durP1;ratioP1;P1;durP2;ratioP2;P2;SDS_P1;SDS_P2;PMS_P1;PMS_P2;Temp;Humidity;BMP_temperature;BMP_pressure;BME280_temperature;BME280_humidity;BME280_pressure;Samples;Min_cycle;Max_cycle;Signal;HPM_P1;HPM_P2
2024/03/08 00:00:14;;;;;;;34.88;16.98;;;;;;;7.12;94.32;99854.44;5050804;28;20021;-26
2024/03/08 00:02:40;;;;;;;34.38;17.67;;;;;;;7.16;94.16;99852.22;5050851;28;20074;-26
2024/03/08 00:05:08;;;;;;;28.40;16.98;;;;;;;7.14;94.22;99843.66;5050706;28;20039;-26
2024/03/08 00:07:37;;;;;;;30.30;16.98;;;;;;;6.94;94.83;99845.97;5051142;28;20029;-26
2024/03/08 00:10:10;;;;;;;31.52;17.02;;;;;;;7.23;93.90;99845.22;5050713;28;20055;-26
2024/03/08 00:12:36;;;;;;;37.28;18.58;;;;;;;7.10;93.13;99835.28;5050874;28;20036;-25
2024/03/08 00:15:02;;;;;;;36.35;19.30;;;;;;;7.42;93.12;99842.09;5050635;28;20025;-25
2024/03/08 00:17:27;;;;;;;37.60;19.13;;;;;;;7.55;92.18;99840.63;5050640;28;20028;-26
2024/03/08 00:19:52;;;;;;;33.65;17.88;;;;;;;7.36;92.67;99839.34;5050636;28;20024;-26
2024/03/08 00:22:18;;;;;;;31.77;17.98;;;;;;;7.32;92.20;99835.41;5050426;28;20049;-26
2024/03/08 00:24:43;;;;;;;31.10;16.50;;;;;;;7.19;92.91;99834.19;5050564;28;20048;-26
2024/03/08 00:27:09;;;;;;;31.58;17.58;;;;;;;7.04;92.90;99842.09;5050169;28;20060;-26
2024/03/08 00:29:35;;;;;;;30.02;17.20;;;;;;;6.96;94.48;99828.91;5050484;28;20164;-26
2024/03/08 00:32:01;;;;;;;35.80;18.48;;;;;;;7.04;94.51;99842.09;5050254;28;20091;-27
2024/03/08 00:34:26;;;;;;;37.90;17.63;;;;;;;7.15;93.21;99834.72;5049767;28;20025;-27
2024/03/08 00:36:52;;;;;;;34.70;18.65;;;;;;;7.03;93.66;99835.16;5039689;28;20438;-26
2024/03/08 00:39:19;;;;;;;30.27;17.02;;;;;;;6.85;94.90;99837.28;5030423;28;20032;-26
2024/03/08 00:41:45;;;;;;;32.58;18.58;;;;;;;7.08;94.08;99836.44;5030547;28;20029;-27
2024/03/08 00:44:10;;;;;;;32.40;18.20;;;;;;;7.12;93.50;99843.84;5030392;28;20033;-27
2024/03/08 00:46:36;;;;;;;32.28;17.67;;;;;;;7.22;92.42;99849.72;5030253;28;20057;-26
2024/03/08 00:49:01;;;;;;;32.03;17.95;;;;;;;7.32;92.06;99841.50;5028769;28;20036;-26
2024/03/08 00:51:26;;;;;;;30.58;17.15;;;;;;;7.30;92.05;99840.88;5030235;28;20034;-27
2024/03/08 00:53:52;;;;;;;32.95;18.80;;;;;;;7.44;91.13;99839.25;5045700;28;20047;-27
2024/03/08 00:56:17;;;;;;;31.45;17.85;;;;;;;7.50;91.16;99835.91;5049785;28;20032;-27
2024/03/08 00:58:42;;;;;;;33.90;18.02;;;;;;;6.95;92.77;99832.56;5050266;28;20021;-27
2024/03/08 01:01:09;;;;;;;37.33;18.70;;;;;;;7.13;93.57;99831.44;5050085;28;20023;-27
2024/03/08 01:03:35;;;;;;;34.90;17.58;;;;;;;7.10;92.56;99821.19;5050218;28;20021;-27
2024/03/08 01:06:01;;;;;;;34.53;18.80;;;;;;;7.04;93.25;99822.72;5050086;28;20116;-25
2024/03/08 01:08:27;;;;;;;34.20;17.67;;;;;;;7.10;92.25;99834.44;5050177;28;20024;-26
2024/03/08 01:10:53;;;;;;;36.20;18.75;;;;;;;6.91;92.87;99819.88;5050164;28;20100;-26
2024/03/08 01:13:19;;;;;;;31.40;17.23;;;;;;;6.88;94.36;99822.88;5049976;28;20096;-26
2024/03/08 01:15:44;;;;;;;34.28;18.73;;;;;;;7.13;93.09;99832.25;5050385;28;20052;-26
2024/03/08 01:18:10;;;;;;;33.92;18.73;;;;;;;7.11;92.72;99828.16;5050275;28;20053;-26
2024/03/08 01:20:35;;;;;;;34.35;17.98;;;;;;;7.16;93.35;99823.13;5049848;28;20345;-26
2024/03/08 01:23:01;;;;;;;37.97;18.65;;;;;;;7.17;92.65;99822.13;5049939;28;20021;-26
2024/03/08 01:25:27;;;;;;;34.55;17.45;;;;;;;7.00;92.84;99821.44;5049730;28;20052;-25
2024/03/08 01:27:53;;;;;;;34.22;18.88;;;;;;;7.31;92.54;99831.94;5049959;28;20466;-26
2024/03/08 01:30:19;;;;;;;35.65;18.70;;;;;;;7.40;92.07;99830.84;5049474;28;20025;-26
2024/03/08 01:32:44;;;;;;;32.28;18.08;;;;;;;7.23;91.38;99834.66;5049845;28;20029;-26
2024/03/08 01:35:10;;;;;;;35.08;17.90;;;;;;;7.24;91.93;99831.00;5049902;28;20412;-26
2024/03/08 01:37:36;;;;;;;33.78;17.85;;;;;;;7.08;92.47;99833.78;5034664;28;20197;-26
2024/03/08 01:40:02;;;;;;;35.40;18.30;;;;;;;7.13;92.47;99836.72;5030130;28;20484;-26
2024/03/08 01:42:28;;;;;;;33.42;18.05;;;;;;;7.14;92.67;99841.84;5029864;28;20113;-26
2024/03/08 01:44:54;;;;;;;32.17;17.45;;;;;;;6.79;93.94;99828.22;5029599;28;20121;-26
2024/03/08 01:47:22;;;;;;;35.08;18.75;;;;;;;6.92;93.77;99834.75;5033347;28;20025;-26
2024/03/08 01:49:51;;;;;;;33.15;18.50;;;;;;;7.00;93.28;99840.78;5033172;28;20032;-27
2024/03/08 01:52:18;;;;;;;36.45;18.42;;;;;;;6.87;95.25;99848.50;5033628;28;20025;-27
2024/03/08 01:54:44;;;;;;;32.80;17.50;;;;;;;7.22;93.12;99840.94;5033938;28;20109;-27
2024/03/08 01:57:11;;;;;;;35.35;18.33;;;;;;;7.36;92.43;99837.50;5038752;28;20104;-26
2024/03/08 01:59:36;;;;;;;36.50;19.42;;;;;;;7.17;93.12;99840.66;5053153;28;20032;-26
2024/03/08 02:02:03;;;;;;;39.20;19.85;;;;;;;7.35;92.80;99827.09;5053070;28;20025;-26
2024/03/08 02:04:30;;;;;;;31.52;17.58;;;;;;;7.31;92.84;99836.38;5052969;28;20120;-25
2024/03/08 02:06:57;;;;;;;33.92;18.55;;;;;;;7.38;91.76;99837.31;5053073;28;20538;-26
2024/03/08 02:09:24;;;;;;;40.15;17.38;;;;;;;7.19;91.34;99834.19;5053043;28;20025;-27
2024/03/08 02:11:50;;;;;;;35.05;18.30;;;;;;;7.33;91.04;99834.38;5053074;28;20036;-27
2024/03/08 02:14:15;;;;;;;36.10;17.10;;;;;;;7.40;90.76;99835.31;5052824;28;20017;-27
2024/03/08 02:16:41;;;;;;;29.55;17.17;;;;;;;7.33;91.00;99837.88;5053018;28;20044;-27
2024/03/08 02:19:09;;;;;;;30.05;16.60;;;;;;;7.19;91.92;99838.66;5052853;28;20068;-27
2024/03/08 02:21:35;;;;;;;29.48;15.95;;;;;;;7.09;91.66;99843.38;5053017;28;20028;-27
2024/03/08 02:24:00;;;;;;;29.58;16.17;;;;;;;7.20;91.77;99835.84;5052933;28;20032;-27
2024/03/08 02:26:26;;;;;;;29.27;16.25;;;;;;;7.00;93.22;99847.91;5052521;28;20049;-26
2024/03/08 02:28:51;;;;;;;31.83;16.63;;;;;;;7.08;92.80;99836.44;5052652;28;20017;-26
2024/03/08 02:31:16;;;;;;;30.45;16.80;;;;;;;6.90;93.41;99844.69;5052531;28;20094;-27
2024/03/08 02:33:42;;;;;;;29.50;15.48;;;;;;;7.02;92.55;99835.31;5052162;28;20100;-27
2024/03/08 02:36:07;;;;;;;30.02;16.17;;;;;;;6.95;93.02;99831.72;5052193;28;20032;-26
2024/03/08 02:38:32;;;;;;;27.08;15.43;;;;;;;7.08;92.68;99847.03;5052512;28;20484;-27
2024/03/08 02:40:58;;;;;;;26.60;15.50;;;;;;;7.09;92.56;99843.38;5053217;28;20028;-27
2024/03/08 02:43:24;;;;;;;28.98;16.55;;;;;;;7.15;93.02;99840.84;5053045;28;20450;-27
2024/03/08 02:45:50;;;;;;;28.42;15.30;;;;;;;7.31;91.85;99845.19;5053001;28;20078;-27
2024/03/08 02:48:16;;;;;;;30.27;15.35;;;;;;;7.16;91.63;99846.94;5052909;28;20113;-28
2024/03/08 02:50:44;;;;;;;27.55;15.77;;;;;;;7.02;93.49;99848.56;5053090;28;20432;-28
2024/03/08 02:53:11;;;;;;;31.73;15.70;;;;;;;6.80;94.65;99855.50;5052552;28;20485;-27
2024/03/08 02:55:37;;;;;;;26.83;15.30;;;;;;;6.81;95.46;99851.84;5052770;28;20183;-26
2024/03/08 02:58:04;;;;;;;24.85;14.40;;;;;;;6.47;97.61;99853.06;5043749;28;20025;-27
2024/03/08 03:00:30;;;;;;;26.50;14.63;;;;;;;6.72;96.71;99852.91;5032417;28;20456;-27
2024/03/08 03:02:56;;;;;;;24.58;15.20;;;;;;;6.65;96.90;99848.31;5049862;28;20055;-26
2024/03/08 03:05:23;;;;;;;28.98;15.95;;;;;;;6.78;97.40;99846.94;5041833;28;20097;-26
2024/03/08 03:07:49;;;;;;;30.63;16.33;;;;;;;6.70;97.69;99845.16;5032577;28;20021;-27
2024/03/08 03:10:17;;;;;;;31.77;15.52;;;;;;;6.48;98.80;99846.78;5050026;28;20029;-27
2024/03/08 03:12:43;;;;;;;32.13;16.73;;;;;;;6.23;100.00;99848.72;5052390;28;20361;-27
2024/03/08 03:15:10;;;;;;;30.48;16.42;;;;;;;6.50;100.00;99855.34;5052189;28;20517;-27
2024/03/08 03:17:35;;;;;;;30.25;16.88;;;;;;;6.43;100.00;99851.75;5051764;28;20144;-27
2024/03/08 03:20:09;;;;;;;31.13;16.20;;;;;;;6.52;100.00;99853.34;5052205;28;20446;-27
2024/03/08 03:22:34;;;;;;;31.40;16.42;;;;;;;6.41;100.00;99851.09;5052511;28;20024;-26
2024/03/08 03:25:02;;;;;;;31.00;15.73;;;;;;;6.35;100.00;99863.19;5051801;28;20108;-27
2024/03/08 03:27:27;;;;;;;30.58;17.27;;;;;;;6.49;100.00;99864.28;5042704;28;20112;-27
2024/03/08 03:29:53;;;;;;;32.58;18.38;;;;;;;6.61;100.00;99862.91;5043593;28;20100;-26
2024/03/08 03:32:18;;;;;;;32.15;17.08;;;;;;;6.55;100.00;99870.69;5051881;28;20116;-26
2024/03/08 03:34:44;;;;;;;31.80;17.20;;;;;;;6.36;100.00;99867.50;5049492;28;20051;-26
2024/03/08 03:37:12;;;;;;;35.75;18.35;;;;;;;6.62;100.00;99874.28;5040452;28;20024;-26
2024/03/08 03:39:48;;;;;;;34.75;18.08;;;;;;;6.65;100.00;99863.38;5040243;28;20771;-26
2024/03/08 03:42:18;;;;;;;36.38;17.65;;;;;;;6.58;100.00;99863.22;5044468;28;20025;-26
2024/03/08 03:44:47;;;;;;;33.88;17.40;;;;;;;6.45;100.00;99870.91;5047170;28;20431;-26
2024/03/08 03:47:13;;;;;;;30.88;16.75;;;;;;;6.32;100.00;99874.13;5038593;28;20025;-26
2024/03/08 03:49:38;;;;;;;31.27;16.30;;;;;;;6.51;100.00;99870.25;5040206;28;20018;-26
2024/03/08 03:52:04;;;;;;;30.92;16.48;;;;;;;6.43;100.00;99862.31;5045085;28;20021;-26
2024/03/08 03:54:31;;;;;;;34.20;17.92;;;;;;;6.42;100.00;99872.09;5043358;28;20025;-26
2024/03/08 03:56:56;;;;;;;36.42;18.73;;;;;;;7.02;100.00;99875.81;5051933;28;20037;-26
2024/03/08 03:59:21;;;;;;;34.97;18.85;;;;;;;7.42;100.00;99884.47;5051512;28;20032;-26
2024/03/08 04:01:47;;;;;;;35.95;18.10;;;;;;;7.22;99.12;99880.66;5051447;28;20029;-26
2024/03/08 04:04:12;;;;;;;31.60;17.77;;;;;;;6.81;98.67;99865.06;5051160;28;20469;-27
2024/03/08 04:06:38;;;;;;;37.65;19.88;;;;;;;6.52;100.00;99885.09;5051416;28;20104;-25
2024/03/08 04:09:04;;;;;;;36.55;18.15;;;;;;;6.55;100.00;99876.81;5048368;28;20432;-25
2024/03/08 04:11:30;;;;;;;34.13;17.65;;;;;;;6.26;100.00;99870.34;5031618;28;20017;-25
2024/03/08 04:13:55;;;;;;;36.58;18.20;;;;;;;6.48;100.00;99877.69;5041649;28;20059;-25
2024/03/08 04:16:21;;;;;;;38.80;20.00;;;;;;;6.43;100.00;99881.66;5051309;28;20024;-25
2024/03/08 04:18:47;;;;;;;37.25;17.75;;;;;;;6.33;100.00;99886.34;5046460;28;20021;-39
2024/03/08 04:21:13;;;;;;;37.53;18.45;;;;;;;6.26;100.00;99885.38;5039968;28;20025;-38
2024/03/08 04:23:38;;;;;;;36.03;18.23;;;;;;;6.16;100.00;99888.22;5050982;28;20028;-39
2024/03/08 04:26:05;;;;;;;40.22;17.50;;;;;;;6.22;100.00;99876.16;5049587;28;20072;-40
2024/03/08 04:28:31;;;;;;;37.13;18.08;;;;;;;5.88;100.00;99880.72;5050939;28;20397;-39
2024/03/08 04:30:57;;;;;;;33.80;17.50;;;;;;;5.76;100.00;99865.38;5051218;28;20025;-39
2024/03/08 04:33:23;;;;;;;37.35;18.10;;;;;;;6.05;100.00;99888.59;5049931;28;20025;-40
2024/03/08 04:35:49;;;;;;;37.47;19.27;;;;;;;5.92;100.00;99901.47;5049275;28;20051;-39
2024/03/08 04:38:15;;;;;;;36.53;16.33;;;;;;;5.65;100.00;99896.44;5049494;28;20029;-39
2024/03/08 04:40:41;;;;;;;37.33;18.52;;;;;;;6.46;100.00;99891.91;5049167;28;20021;-39
2024/03/08 04:43:07;;;;;;;34.80;18.33;;;;;;;6.42;100.00;99889.78;5049286;28;20028;-39
2024/03/08 04:45:33;;;;;;;37.08;17.67;;;;;;;6.28;100.00;99891.31;5049206;28;20027;-40
2024/03/08 04:47:59;;;;;;;35.95;18.55;;;;;;;6.31;99.46;99892.81;5050173;28;20358;-40
2024/03/08 04:50:24;;;;;;;35.72;17.80;;;;;;;6.14;100.00;99898.13;5041927;28;20033;-39
2024/03/08 04:52:49;;;;;;;33.83;17.88;;;;;;;6.14;100.00;99898.13;5030902;28;20370;-38
2024/03/08 04:55:15;;;;;;;33.45;17.05;;;;;;;5.97;99.62;99886.00;5029233;28;20112;-38
2024/03/08 04:57:41;;;;;;;36.53;17.73;;;;;;;5.74;100.00;99902.50;5030936;28;20021;-39
2024/03/08 05:00:10;;;;;;;57.45;22.00;;;;;;;6.62;100.00;99912.13;5030943;28;20032;-39
2024/03/08 05:02:38;;;;;;;40.67;20.48;;;;;;;6.21;100.00;99903.59;5031010;28;20021;-37
2024/03/08 05:05:08;;;;;;;43.13;21.00;;;;;;;5.90;100.00;99914.03;5030943;28;20025;-41
2024/03/08 05:07:35;;;;;;;40.85;18.88;;;;;;;5.84;100.00;99912.88;5031459;28;20022;-40
2024/03/08 05:10:02;;;;;;;39.17;18.90;;;;;;;5.79;100.00;99909.94;5043235;28;20021;-39
2024/03/08 05:12:27;;;;;;;35.13;19.55;;;;;;;5.76;100.00;99911.09;5051362;28;20032;-40
2024/03/08 05:14:53;;;;;;;41.53;21.10;;;;;;;5.94;100.00;99905.63;5051552;28;20025;-40
2024/03/08 05:17:19;;;;;;;35.58;18.63;;;;;;;5.70;100.00;99916.22;5051536;28;20028;-40
2024/03/08 05:19:44;;;;;;;38.70;19.50;;;;;;;5.73;100.00;99895.59;5051135;28;20028;-39
2024/03/08 05:22:09;;;;;;;39.53;19.65;;;;;;;5.93;100.00;99925.09;5054383;28;20452;-40
2024/03/08 05:24:35;;;;;;;36.78;19.65;;;;;;;5.92;100.00;99920.81;5054203;28;20108;-41
2024/03/08 05:27:00;;;;;;;37.42;19.20;;;;;;;5.84;100.00;99924.28;5053809;28;20053;-37
2024/03/08 05:29:26;;;;;;;43.03;19.52;;;;;;;5.86;100.00;99926.75;5053832;28;20032;-40
2024/03/08 05:31:52;;;;;;;36.97;19.02;;;;;;;5.97;100.00;99930.91;5053890;28;20473;-41
2024/03/08 05:34:19;;;;;;;39.55;20.42;;;;;;;5.93;100.00;99935.66;5053358;28;20021;-41
2024/03/08 05:36:46;;;;;;;37.63;19.65;;;;;;;5.86;100.00;99929.38;5053432;28;20025;-43
2024/03/08 05:39:15;;;;;;;41.47;19.83;;;;;;;6.01;100.00;99940.94;5053202;28;20021;-41
2024/03/08 05:41:41;;;;;;;42.00;20.13;;;;;;;5.95;100.00;99944.25;5053107;28;20048;-41
2024/03/08 05:44:07;;;;;;;41.00;19.88;;;;;;;6.06;100.00;99951.03;5052820;28;20033;-41
2024/03/08 05:46:33;;;;;;;33.50;18.38;;;;;;;5.85;99.72;99951.53;5052875;28;20551;-40
2024/03/08 05:49:04;;;;;;;42.17;20.05;;;;;;;6.02;100.00;99953.19;5053541;28;20021;-40
2024/03/08 05:51:30;;;;;;;41.88;21.00;;;;;;;6.07;100.00;99956.16;5052889;28;20048;-40
2024/03/08 05:53:56;;;;;;;39.90;19.83;;;;;;;6.28;99.70;99951.28;5053424;28;20115;-40
2024/03/08 05:56:23;;;;;;;46.42;21.83;;;;;;;6.47;98.24;99961.44;5053641;28;20029;-40
2024/03/08 05:58:50;;;;;;;38.53;20.65;;;;;;;6.29;99.08;99963.53;5052771;28;20467;-42
2024/03/08 06:01:15;;;;;;;46.80;21.05;;;;;;;6.18;98.63;99965.50;5053485;28;20021;-41
2024/03/08 06:03:44;;;;;;;42.53;21.27;;;;;;;5.99;99.67;99961.44;5053231;28;20123;-41
2024/03/08 06:06:12;;;;;;;45.85;21.75;;;;;;;6.22;99.92;99963.34;5053679;28;20052;-38
2024/03/08 06:08:38;;;;;;;42.53;19.30;;;;;;;5.88;98.91;99970.50;5053359;28;20464;-40
2024/03/08 06:11:05;;;;;;;37.83;19.55;;;;;;;6.07;100.00;99971.16;5053407;28;20056;-38
2024/03/08 06:13:31;;;;;;;43.38;21.70;;;;;;;6.19;99.79;99976.94;5053286;28;20048;-40
2024/03/08 06:15:56;;;;;;;48.92;20.50;;;;;;;6.17;98.62;99970.97;5053485;28;20055;-42
2024/03/08 06:18:22;;;;;;;40.58;20.60;;;;;;;6.34;98.86;99974.38;5053298;28;20083;-41
2024/03/08 06:20:47;;;;;;;42.67;20.75;;;;;;;6.33;98.11;99980.69;5053601;28;20549;-40
2024/03/08 06:23:17;;;;;;;45.45;22.17;;;;;;;6.11;99.97;99980.41;5053133;28;20067;-39
2024/03/08 06:25:43;;;;;;;45.47;20.52;;;;;;;6.13;100.00;99986.34;5052855;28;20051;-42
2024/03/08 06:28:08;;;;;;;39.75;21.08;;;;;;;6.30;100.00;99983.66;5053481;28;20032;-41
2024/03/08 06:30:34;;;;;;;42.55;21.33;;;;;;;6.13;99.22;99990.78;5052903;28;20106;-40
2024/03/08 06:33:00;;;;;;;42.13;22.10;;;;;;;6.12;100.00;99987.34;5052233;28;20021;-40
2024/03/08 06:35:25;;;;;;;42.70;20.08;;;;;;;6.12;99.10;99991.81;5052959;28;20052;-39
2024/03/08 06:37:50;;;;;;;41.15;21.25;;;;;;;6.18;99.35;99988.47;5053144;28;20086;-41
2024/03/08 06:40:16;;;;;;;39.88;19.65;;;;;;;6.21;99.95;99991.63;5052930;28;20477;-39
2024/03/08 06:42:41;;;;;;;42.90;21.05;;;;;;;6.46;99.38;99994.19;5052751;28;20028;-40
2024/03/08 06:45:08;;;;;;;44.45;22.52;;;;;;;7.04;97.34;100000.88;5053282;28;20103;-40
2024/03/08 06:47:34;;;;;;;45.10;21.10;;;;;;;7.53;94.69;99993.59;5053409;28;20063;-41
2024/03/08 06:50:00;;;;;;;44.75;21.10;;;;;;;7.74;92.45;100003.53;5050784;28;20044;-39
2024/03/08 06:52:25;;;;;;;43.53;20.65;;;;;;;7.92;92.03;100003.19;5032797;28;20025;-41
2024/03/08 06:54:52;;;;;;;39.55;19.88;;;;;;;8.31;87.86;100002.97;5032934;28;20037;-44
2024/03/08 06:57:18;;;;;;;41.63;19.52;;;;;;;8.23;87.17;100003.06;5032994;28;20037;-41
2024/03/08 06:59:44;;;;;;;38.58;20.23;;;;;;;7.93;88.98;100007.50;5031598;28;20041;-42
2024/03/08 07:02:10;;;;;;;37.03;20.25;;;;;;;8.07;88.20;100012.00;5030733;28;20489;-41
2024/03/08 07:04:37;;;;;;;38.53;19.70;;;;;;;7.95;88.05;100008.16;5030657;28;20033;-41
2024/03/08 07:07:04;;;;;;;38.75;20.23;;;;;;;8.54;86.47;100005.56;5030948;28;20394;-40
2024/03/08 07:09:30;;;;;;;39.92;19.77;;;;;;;8.06;88.33;100009.53;5030674;28;20047;-40
2024/03/08 07:11:55;;;;;;;41.20;20.00;;;;;;;8.01;88.20;100013.56;5030225;28;20245;-40
2024/03/08 07:14:22;;;;;;;39.55;19.85;;;;;;;8.17;87.29;100007.28;5031006;28;20032;-41
2024/03/08 07:16:47;;;;;;;42.10;21.00;;;;;;;8.10;86.33;100003.69;5032829;28;20025;-42
2024/03/08 07:19:13;;;;;;;41.60;20.80;;;;;;;7.74;87.77;100020.25;5032297;28;20512;-41
2024/03/08 07:21:38;;;;;;;46.75;20.80;;;;;;;7.88;87.61;100016.00;5032230;28;20021;-40
2024/03/08 07:24:21;;;;;;;39.35;20.10;;;;;;;7.97;88.18;100016.75;5032013;28;20021;-41
2024/03/08 07:26:49;;;;;;;35.28;19.58;;;;;;;7.84;87.20;100009.38;5032108;28;20060;-40
2024/03/08 07:29:15;;;;;;;40.75;20.92;;;;;;;7.79;86.84;100020.53;5032637;28;20448;-39
2024/03/08 07:34:07;;;;;;;35.55;19.52;;;;;;;7.93;85.82;100029.53;5032611;28;20036;-27
2024/03/08 07:36:33;;;;;;;43.03;20.55;;;;;;;8.15;84.81;100027.84;5032353;28;20032;-27
2024/03/08 07:38:59;;;;;;;42.63;20.38;;;;;;;8.39;83.86;100025.94;5032179;28;20029;-27
2024/03/08 07:41:24;;;;;;;36.75;19.70;;;;;;;8.24;84.49;100017.97;5031983;28;20036;-27
2024/03/08 07:43:49;;;;;;;34.95;19.40;;;;;;;8.52;83.57;100030.63;5031894;28;20082;-27
2024/03/08 07:46:15;;;;;;;30.02;17.45;;;;;;;8.44;81.97;100038.69;5031575;28;20048;-27
2024/03/08 07:48:40;;;;;;;36.00;18.85;;;;;;;8.19;83.76;100025.66;5031922;28;20025;-27
2024/03/08 07:51:05;;;;;;;38.20;18.77;;;;;;;8.14;82.75;100035.97;5041591;28;20021;-26
2024/03/08 07:53:31;;;;;;;34.13;18.40;;;;;;;7.73;85.69;100031.84;5051641;28;20032;-27
2024/03/08 07:55:56;;;;;;;34.03;17.80;;;;;;;7.97;84.56;100027.34;5051275;28;20075;-26
2024/03/08 07:58:23;;;;;;;32.15;16.60;;;;;;;7.66;84.71;100033.56;5051467;28;20032;-27
2024/03/08 08:00:49;;;;;;;32.72;17.65;;;;;;;7.56;85.93;100020.56;5051482;28;20037;-27
2024/03/08 08:03:15;;;;;;;31.35;17.15;;;;;;;7.32;87.24;100026.03;5051961;28;20033;-27
2024/03/08 08:05:41;;;;;;;31.42;16.40;;;;;;;7.79;86.90;100030.31;5051209;28;20025;-27
2024/03/08 08:08:10;;;;;;;34.50;17.63;;;;;;;7.67;85.50;100032.53;5050009;28;20033;-28
2024/03/08 08:10:35;;;;;;;33.17;17.98;;;;;;;8.01;84.61;100040.06;5051408;28;20112;-27
2024/03/08 08:13:04;;;;;;;38.20;17.63;;;;;;;8.16;83.34;100031.31;5051153;28;20099;-27
2024/03/08 08:15:29;;;;;;;35.05;17.80;;;;;;;7.99;85.73;100041.22;5051597;28;20036;-27
2024/03/08 08:17:55;;;;;;;35.05;18.08;;;;;;;8.29;82.99;100038.63;5051230;28;20118;-29
2024/03/08 08:20:21;;;;;;;32.03;17.73;;;;;;;8.96;80.71;100046.50;5051206;28;20036;-27
2024/03/08 08:22:48;;;;;;;30.60;16.85;;;;;;;8.71;79.17;100048.66;5051449;28;20089;-27
2024/03/08 08:25:15;;;;;;;32.47;16.83;;;;;;;8.72;79.55;100050.31;5051182;28;20025;-28
2024/03/08 08:27:42;;;;;;;31.23;16.70;;;;;;;8.75;78.76;100054.41;5051157;28;20547;-27
2024/03/08 08:30:08;;;;;;;31.10;16.50;;;;;;;8.60;78.99;100049.94;5051076;28;20025;-28
2024/03/08 08:32:37;;;;;;;29.05;15.90;;;;;;;8.87;79.23;100052.97;5051109;28;20060;-26
2024/03/08 08:35:07;;;;;;;28.55;15.05;;;;;;;8.00;81.78;100048.19;5051113;28;20021;-27
2024/03/08 08:37:35;;;;;;;30.33;15.75;;;;;;;8.20;81.89;100051.97;5051406;28;20416;-27
2024/03/08 08:40:05;;;;;;;30.30;15.60;;;;;;;8.03;83.44;100055.78;5051154;28;20112;-27
2024/03/08 08:42:30;;;;;;;;;;;;;;;8.87;80.68;100050.31;5051216;28;20032;-28
2024/03/08 08:44:57;;;;;;;27.05;14.93;;;;;;;9.06;79.85;100050.72;5047789;28;19913;-28
2024/03/08 08:47:23;;;;;;;26.90;14.82;;;;;;;8.21;82.66;100016.50;5039164;28;20103;-28
2024/03/08 08:49:50;;;;;;;28.55;16.23;;;;;;;8.08;82.23;100048.13;5031139;28;20424;-28
2024/03/08 08:52:16;;;;;;;30.65;15.50;;;;;;;7.93;82.84;100049.91;5049572;28;20098;-27
2024/03/08 08:54:42;;;;;;;25.88;16.17;;;;;;;8.55;81.12;100046.19;5040267;28;20021;-28
2024/03/08 08:57:07;;;;;;;28.98;15.98;;;;;;;8.06;82.15;100047.47;5045480;28;20394;-27
2024/03/08 08:59:36;;;;;;;27.10;15.00;;;;;;;8.29;82.75;100049.25;5046356;28;20027;-39
2024/03/08 09:02:03;;;;;;;28.95;15.90;;;;;;;8.33;80.46;100045.22;5046114;28;20493;-40
2024/03/08 09:04:29;;;;;;;30.67;16.02;;;;;;;7.99;82.53;100051.84;5046303;28;20450;-42
2024/03/08 09:06:54;;;;;;;27.80;16.05;;;;;;;7.88;84.41;100046.94;5046614;28;20086;-42
2024/03/08 09:09:21;;;;;;;32.38;16.30;;;;;;;8.14;82.82;100041.25;5046393;28;20460;-38
2024/03/08 09:11:47;;;;;;;30.95;16.83;;;;;;;8.29;83.84;100054.56;5046107;28;20021;-37
2024/03/08 09:14:12;;;;;;;23.55;13.70;;;;;;;7.96;82.49;100053.03;5046002;28;20013;-40
2024/03/08 09:16:37;;;;;;;20.35;11.85;;;;;;;8.09;80.45;100049.78;5046532;28;20090;-40
2024/03/08 09:19:03;;;;;;;26.90;13.70;;;;;;;8.08;81.90;100044.66;5046100;28;20020;-40
2024/03/08 09:21:28;;;;;;;27.13;13.15;;;;;;;8.29;81.28;100036.81;5047022;28;20028;-40
2024/03/08 09:23:53;;;;;;;22.50;13.55;;;;;;;8.53;80.54;100038.41;5046543;28;20461;-40
2024/03/08 09:26:19;;;;;;;26.75;14.35;;;;;;;8.45;80.60;100038.47;5047732;28;20041;-42
2024/03/08 09:28:45;;;;;;;24.75;14.48;;;;;;;8.55;80.05;100048.84;5045271;28;20539;-40
2024/03/08 09:31:11;;;;;;;25.45;14.35;;;;;;;8.35;83.04;100048.53;5045326;28;20024;-43
2024/03/08 09:33:36;;;;;;;26.95;14.75;;;;;;;8.83;80.07;100049.00;5044912;28;20353;-42
2024/03/08 09:36:03;;;;;;;27.63;14.43;;;;;;;9.11;78.47;100051.81;5048014;28;20017;-39
2024/03/08 09:38:29;;;;;;;24.83;12.80;;;;;;;9.08;77.43;100052.19;5045649;28;20093;-41
2024/03/08 09:40:56;;;;;;;22.80;13.15;;;;;;;8.96;79.51;100051.00;5050705;28;20079;-39
2024/03/08 09:43:23;;;;;;;25.25;12.52;;;;;;;9.15;76.46;100060.22;5054233;28;20024;-42
2024/03/08 09:45:51;;;;;;;20.50;11.77;;;;;;;9.05;76.51;100057.06;5046161;28;20032;-37
2024/03/08 09:48:18;;;;;;;26.20;13.32;;;;;;;9.05;78.96;100054.41;5045685;28;20485;-40
2024/03/08 09:50:44;;;;;;;24.92;12.80;;;;;;;9.74;74.00;100059.22;5045718;28;20021;-42
2024/03/08 09:53:11;;;;;;;24.05;12.38;;;;;;;9.18;76.13;100055.38;5045764;28;20566;-40
2024/03/08 09:55:40;;;;;;;25.98;13.27;;;;;;;9.15;76.44;100052.25;5048677;28;20019;-40
2024/03/08 09:58:27;;;;;;;21.92;12.48;;;;;;;9.18;75.49;100054.56;5044385;28;20028;-42
2024/03/08 10:00:52;;;;;;;21.92;12.60;;;;;;;8.76;77.55;100048.13;5045500;28;20029;-39
2024/03/08 10:03:19;;;;;;;23.80;13.27;;;;;;;8.95;77.21;100046.72;5053654;28;20041;-40
2024/03/08 10:05:45;;;;;;;22.92;12.27;;;;;;;8.78;77.29;100049.56;5053929;28;20033;-36
2024/03/08 10:08:10;;;;;;;24.40;12.80;;;;;;;8.75;77.75;100041.16;5052177;28;20029;-40
2024/03/08 10:10:39;;;;;;;20.00;11.25;;;;;;;9.10;74.83;100044.88;5053662;28;20036;-40
2024/03/08 10:13:09;;;;;;;22.60;12.00;;;;;;;8.98;76.26;100044.50;5053296;28;20421;-40
2024/03/08 10:15:34;;;;;;;;;;;;;;;9.09;75.64;100043.19;5054479;28;20036;-41
2024/03/08 10:18:02;;;;;;;20.10;12.05;;;;;;;8.87;76.51;100034.38;5053705;28;19909;-41
2024/03/08 10:20:32;;;;;;;22.35;11.95;;;;;;;8.98;76.47;100035.72;5053871;28;20032;-43
2024/03/08 10:22:59;;;;;;;19.60;11.80;;;;;;;9.18;75.95;100035.97;5053810;28;20051;-39
2024/03/08 10:25:24;;;;;;;24.00;12.52;;;;;;;9.65;74.66;100047.06;5045110;28;20053;-38
2024/03/08 10:27:50;;;;;;;29.75;13.40;;;;;;;9.53;73.99;100039.59;5046593;28;20133;-41
2024/03/08 10:30:21;;;;;;;25.27;13.07;;;;;;;9.50;74.43;100039.97;5053722;28;20040;-43
2024/03/08 10:32:47;;;;;;;21.48;13.07;;;;;;;9.51;74.74;100032.81;5054069;28;20222;-41
2024/03/08 10:35:12;;;;;;;20.95;13.13;;;;;;;9.46;75.99;100041.38;5054308;28;20176;-41
2024/03/08 10:37:49;;;;;;;21.10;12.10;;;;;;;9.70;75.33;100034.84;5054163;28;20693;-39
2024/03/08 10:40:19;;;;;;;23.65;11.65;;;;;;;9.97;72.92;100035.06;5053793;28;20029;-40
2024/03/08 10:42:55;;;;;;;19.48;10.55;;;;;;;9.93;72.20;100028.50;5053599;28;20024;-40
2024/03/08 10:45:42;;;;;;;21.50;11.60;;;;;;;9.66;74.22;100027.47;5053400;28;20414;-40
2024/03/08 10:48:32;;;;;;;24.65;12.57;;;;;;;9.98;72.97;100020.78;5053735;28;20452;-46
2024/03/08 10:51:04;;;;;;;21.33;12.43;;;;;;;10.03;72.90;100022.84;5046061;28;20183;-39
2024/03/08 10:53:30;;;;;;;21.42;12.50;;;;;;;9.83;72.54;100023.50;5033514;28;20017;-40
2024/03/08 10:55:57;;;;;;;20.17;12.07;;;;;;;9.82;72.96;100016.53;5033414;28;20075;-40
2024/03/08 10:58:27;;;;;;;24.85;11.40;;;;;;;9.74;73.76;100014.84;5033479;28;20036;-41
2024/03/08 11:00:53;;;;;;;21.33;10.55;;;;;;;9.71;73.63;99999.28;5039784;28;20017;-41
2024/03/08 11:03:41;;;;;;;22.45;11.45;;;;;;;9.82;73.08;100015.72;5053014;28;20116;-42
2024/03/08 11:06:09;;;;;;;22.83;11.20;;;;;;;9.75;72.44;100013.03;5053436;28;20044;-37
2024/03/08 11:08:36;;;;;;;22.55;11.48;;;;;;;9.64;72.17;100001.06;5053231;28;20029;-39
2024/03/08 11:11:02;;;;;;;18.05;11.73;;;;;;;9.34;74.83;100009.16;5052863;28;20104;-41
2024/03/08 11:13:36;;;;;;;20.60;11.60;;;;;;;9.16;76.87;100011.44;5052870;28;20104;-40
2024/03/08 11:16:12;;;;;;;18.52;11.35;;;;;;;9.39;76.11;100001.44;5052499;28;20056;-41
2024/03/08 11:18:38;;;;;;;19.73;11.60;;;;;;;9.19;76.55;100005.72;5052595;28;20029;-42
2024/03/08 11:21:12;;;;;;;19.13;11.20;;;;;;;9.52;74.96;100005.22;5053266;28;20027;-39